Mayer, Minnesota
Current Conditions -  °F | °C
As of 4:34 AM on Monday 20 Oct 2014 (Local Time) from KGYL Reporting Station
Clear Clear  
Wind Chill: 42°   Ceiling: Unl
Heat Index: 45°   Visibility: 10mi
Dew Point: 41°   Wind: 6mph
Humidity: 85%   Direction: 260°W
Pressure: 29.93"   Gusts: NA
Location:  44.88°N, 93.89°W
Report Text: KGYL 200934Z AUTO 26005KT 10SM CLR 07/05 A2993 RMK AO2 T00730050
Loading
Personal Weather Stations






























Interactive Weather Map
Tropical Storm Tracking
New forecast layout! Learn more

10-Day Weather Forecast

Advertisements
Track Severe Weather on mobile